createdAt,value
2023-04-11T00:00:53.240Z,14.34
2023-04-11T00:01:53.408Z,14.36
2023-04-11T00:02:53.419Z,14.39
2023-04-11T00:03:53.425Z,14.26
2023-04-11T00:04:53.259Z,14.24
2023-04-11T00:05:53.308Z,14.40
2023-04-11T00:06:53.314Z,14.52
2023-04-11T00:07:53.374Z,14.56
2023-04-11T00:08:53.734Z,14.41
2023-04-11T00:09:53.504Z,14.23
2023-04-11T00:10:53.549Z,14.13
2023-04-11T00:11:53.621Z,14.30
2023-04-11T00:12:53.657Z,14.44
2023-04-11T00:13:53.632Z,14.50
2023-04-11T00:14:53.686Z,14.39
2023-04-11T00:15:53.709Z,14.39
2023-04-11T00:16:53.826Z,14.44
2023-04-11T00:17:53.885Z,14.22
2023-04-11T00:18:53.905Z,14.03
2023-04-11T00:19:53.703Z,14.08
2023-04-11T00:20:53.721Z,14.09
2023-04-11T00:21:54.597Z,14.17
2023-04-11T00:22:53.776Z,14.24
2023-04-11T00:23:53.779Z,14.30
2023-04-11T00:24:54.619Z,14.23
2023-04-11T00:25:53.787Z,14.16
2023-04-11T00:26:53.817Z,14.23
2023-04-11T00:27:53.807Z,14.27
2023-04-11T00:28:53.982Z,14.32
2023-04-11T00:29:53.774Z,14.34
2023-04-11T00:30:53.877Z,14.33
2023-04-11T00:31:53.886Z,14.29
2023-04-11T00:32:53.955Z,14.36
2023-04-11T00:33:53.823Z,14.36
2023-04-11T00:34:53.844Z,14.19
2023-04-11T00:35:54.677Z,14.13
2023-04-11T00:36:53.915Z,14.13
2023-04-11T00:37:53.880Z,14.20
2023-04-11T00:38:54.569Z,14.24
2023-04-11T00:39:54.020Z,14.30
2023-04-11T00:40:53.997Z,14.34
2023-04-11T00:41:54.000Z,14.39
2023-04-11T00:42:54.024Z,14.44
2023-04-11T00:43:54.066Z,14.50
2023-04-11T00:44:54.072Z,14.52
2023-04-11T00:45:54.117Z,14.57
2023-04-11T00:46:54.100Z,14.61
2023-04-11T00:47:54.150Z,14.66
2023-04-11T00:48:54.648Z,14.68
2023-04-11T00:49:54.097Z,14.72
2023-04-11T00:50:54.162Z,14.74
2023-04-11T00:51:54.534Z,14.77
2023-04-11T00:52:54.287Z,14.82
2023-04-11T00:53:54.619Z,14.82
2023-04-11T00:54:54.297Z,14.85
2023-04-11T00:55:54.295Z,14.84
2023-04-11T00:56:54.302Z,14.82
2023-04-11T00:57:54.351Z,14.84
2023-04-11T00:58:54.575Z,14.82
2023-04-11T00:59:54.415Z,14.84
2023-04-11T01:00:54.494Z,14.86
2023-04-11T01:01:54.633Z,14.91
2023-04-11T01:02:54.702Z,14.88
2023-04-11T01:03:54.734Z,14.84
2023-04-11T01:04:54.730Z,14.66
2023-04-11T01:05:54.817Z,14.61
2023-04-11T01:06:54.783Z,14.57
2023-04-11T01:07:54.795Z,14.52
2023-04-11T01:08:55.048Z,14.47
2023-04-11T01:09:54.802Z,14.44
2023-04-11T01:10:54.774Z,14.51
2023-04-11T01:11:54.799Z,14.51
2023-04-11T01:12:54.769Z,14.34
2023-04-11T01:13:54.792Z,14.29
2023-04-11T01:14:54.875Z,14.29
2023-04-11T01:15:55.201Z,14.30
2023-04-11T01:16:54.958Z,14.24
2023-04-11T01:17:54.978Z,14.34
2023-04-11T01:18:55.142Z,14.41
2023-04-11T01:19:55.012Z,14.43
2023-04-11T01:20:55.072Z,14.33
2023-04-11T01:21:55.097Z,14.33
2023-04-11T01:22:55.134Z,14.32
2023-04-11T01:23:55.167Z,14.19
2023-04-11T01:24:55.202Z,14.29
2023-04-11T01:25:55.573Z,14.33
2023-04-11T01:26:55.629Z,14.36
2023-04-11T01:27:55.365Z,14.29
2023-04-11T01:28:55.521Z,14.22
2023-04-11T01:29:55.420Z,14.19
2023-04-11T01:30:55.566Z,14.24
2023-04-11T01:31:55.593Z,14.32
2023-04-11T01:32:56.365Z,14.36
2023-04-11T01:33:55.747Z,14.47
2023-04-11T01:34:55.744Z,14.52
2023-04-11T01:35:55.804Z,14.58
2023-04-11T01:36:55.836Z,14.57
2023-04-11T01:37:55.930Z,14.61
2023-04-11T01:38:56.434Z,14.64
2023-04-11T01:39:55.983Z,14.68
2023-04-11T01:40:55.937Z,14.70
2023-04-11T01:41:57.039Z,14.72
2023-04-11T01:42:56.056Z,14.77
2023-04-11T01:43:56.123Z,14.74
2023-04-11T01:44:56.159Z,14.64
2023-04-11T01:45:56.213Z,14.57
2023-04-11T01:46:56.282Z,14.37
2023-04-11T01:47:56.458Z,14.12
2023-04-11T01:48:56.606Z,14.27
2023-04-11T01:49:56.812Z,14.36
2023-04-11T01:50:56.464Z,14.43
2023-04-11T01:51:56.478Z,14.47
2023-04-11T01:52:56.459Z,14.43
2023-04-11T01:53:56.458Z,14.47
2023-04-11T01:54:56.808Z,14.45
2023-04-11T01:55:56.816Z,14.40
2023-04-11T01:56:56.531Z,14.40
2023-04-11T01:57:56.584Z,14.45
2023-04-11T01:58:57.909Z,14.54
2023-04-11T01:59:56.669Z,14.57
2023-04-11T02:00:56.677Z,14.57
2023-04-11T02:01:57.185Z,14.51
2023-04-11T02:02:56.815Z,14.52
2023-04-11T02:03:56.866Z,14.19
2023-04-11T02:04:57.152Z,14.15
2023-04-11T02:05:56.835Z,14.02
2023-04-11T02:06:56.878Z,13.69
2023-04-11T02:07:57.305Z,13.49
2023-04-11T02:08:57.212Z,13.49
2023-04-11T02:09:57.031Z,13.24
2023-04-11T02:10:57.034Z,12.94
2023-04-11T02:11:57.095Z,12.89
2023-04-11T02:12:57.151Z,13.07
2023-04-11T02:13:57.156Z,13.19
2023-04-11T02:14:57.173Z,13.19
2023-04-11T02:15:57.211Z,13.32
2023-04-11T02:16:57.319Z,13.43
2023-04-11T02:17:57.315Z,13.34
2023-04-11T02:18:57.549Z,13.43
2023-04-11T02:19:57.504Z,13.51
2023-04-11T02:20:57.481Z,13.53
2023-04-11T02:21:57.558Z,13.61
2023-04-11T02:22:57.544Z,13.69
2023-04-11T02:23:57.703Z,13.82
2023-04-11T02:24:57.526Z,13.79
2023-04-11T02:25:57.514Z,13.85
2023-04-11T02:26:57.603Z,13.95
2023-04-11T02:27:57.518Z,13.82
2023-04-11T02:28:57.734Z,13.67
2023-04-11T02:29:57.534Z,13.69
2023-04-11T02:30:57.620Z,13.62
2023-04-11T02:31:57.713Z,13.64
2023-04-11T02:32:57.638Z,13.51
2023-04-11T02:33:57.576Z,13.49
2023-04-11T02:34:57.617Z,13.60
2023-04-11T02:35:57.632Z,13.74
2023-04-11T02:36:57.697Z,13.84
2023-04-11T02:37:57.701Z,13.92
2023-04-11T02:38:57.760Z,14.01
2023-04-11T02:39:57.837Z,14.08
2023-04-11T02:40:57.825Z,14.11
2023-04-11T02:41:57.824Z,14.17
2023-04-11T02:42:58.136Z,14.24
2023-04-11T02:43:57.854Z,14.26
2023-04-11T02:44:58.145Z,14.20
2023-04-11T02:46:05.826Z,14.20
2023-04-11T02:46:58.871Z,14.29
2023-04-11T02:47:57.890Z,14.20
2023-04-11T02:48:58.029Z,14.24
2023-04-11T02:49:57.823Z,14.15
2023-04-11T02:50:57.801Z,13.99
2023-04-11T02:51:57.879Z,14.06
2023-04-11T02:52:57.836Z,14.01
2023-04-11T02:53:57.794Z,14.08
2023-04-11T02:54:57.763Z,14.16
2023-04-11T02:55:57.792Z,14.20
2023-04-11T02:56:57.806Z,14.17
2023-04-11T02:57:57.713Z,14.22
2023-04-11T02:58:58.113Z,14.29
2023-04-11T02:59:57.813Z,14.40
2023-04-11T03:00:57.856Z,14.30
2023-04-11T03:01:58.003Z,14.34
2023-04-11T03:02:57.975Z,14.36
2023-04-11T03:03:57.993Z,14.17
2023-04-11T03:04:57.932Z,13.98
2023-04-11T03:05:57.986Z,13.95
2023-04-11T03:06:57.968Z,14.05
2023-04-11T03:07:58.263Z,14.13
2023-04-11T03:08:58.254Z,14.20
2023-04-11T03:09:57.941Z,14.26
2023-04-11T03:10:57.929Z,14.24
2023-04-11T03:11:57.908Z,14.23
2023-04-11T03:12:57.927Z,14.15
2023-04-11T03:13:57.946Z,14.13
2023-04-11T03:14:58.006Z,14.17
2023-04-11T03:15:57.989Z,14.20
2023-04-11T03:16:57.968Z,14.24
2023-04-11T03:17:57.983Z,14.26
2023-04-11T03:18:58.027Z,14.32
2023-04-11T03:19:57.975Z,14.37
2023-04-11T03:20:58.098Z,14.44
2023-04-11T03:21:58.152Z,14.41
2023-04-11T03:22:58.216Z,14.24
2023-04-11T03:23:58.215Z,14.23
2023-04-11T03:24:58.234Z,14.24
2023-04-11T03:25:58.295Z,14.27
2023-04-11T03:26:58.402Z,14.32
2023-04-11T03:27:58.361Z,14.36
2023-04-11T03:28:58.388Z,14.41
2023-04-11T03:29:58.469Z,14.50
2023-04-11T03:30:58.525Z,14.54
2023-04-11T03:31:58.478Z,14.57
2023-04-11T03:32:58.563Z,14.54
2023-04-11T03:33:58.473Z,14.57
2023-04-11T03:34:58.486Z,14.60
2023-04-11T03:35:58.545Z,14.57
2023-04-11T03:36:58.542Z,14.51
2023-04-11T03:37:58.566Z,14.50
2023-04-11T03:38:58.586Z,14.50
2023-04-11T03:39:58.523Z,14.36
2023-04-11T03:40:58.646Z,13.90
2023-04-11T03:41:58.602Z,13.85
2023-04-11T03:42:58.594Z,13.89
2023-04-11T03:43:58.641Z,13.93
2023-04-11T03:44:58.736Z,13.99
2023-04-11T03:45:58.725Z,14.01
2023-04-11T03:46:58.823Z,13.92
2023-04-11T03:47:58.815Z,14.02
2023-04-11T03:48:58.882Z,13.93
2023-04-11T03:49:58.801Z,13.98
2023-04-11T03:50:58.915Z,13.99
2023-04-11T03:51:58.968Z,14.03
2023-04-11T03:52:59.037Z,13.95
2023-04-11T03:53:59.027Z,14.01
2023-04-11T03:54:59.104Z,14.08
2023-04-11T03:55:59.146Z,14.11
2023-04-11T03:56:59.183Z,14.11
2023-04-11T03:57:59.242Z,14.05
2023-04-11T03:58:59.297Z,13.90
2023-04-11T03:59:59.369Z,13.92
2023-04-11T04:00:59.273Z,13.58
2023-04-11T04:01:59.439Z,13.44
2023-04-11T04:02:59.510Z,13.49
2023-04-11T04:03:59.766Z,13.61
2023-04-11T04:04:59.450Z,13.72
2023-04-11T04:05:59.509Z,13.85
2023-04-11T04:06:59.484Z,13.90
2023-04-11T04:07:59.448Z,13.99
2023-04-11T04:08:59.453Z,14.03
2023-04-11T04:09:59.526Z,14.06
2023-04-11T04:10:59.455Z,14.09
2023-04-11T04:11:59.451Z,14.16
2023-04-11T04:12:59.532Z,14.23
2023-04-11T04:13:59.495Z,14.29
2023-04-11T04:14:59.477Z,14.15
2023-04-11T04:16:01.276Z,14.06
2023-04-11T04:16:59.560Z,13.99
2023-04-11T04:17:59.480Z,13.96
2023-04-11T04:18:59.463Z,13.86
2023-04-11T04:19:59.476Z,13.88
2023-04-11T04:20:59.468Z,13.89
2023-04-11T04:21:59.475Z,13.81
2023-04-11T04:22:59.461Z,13.77
2023-04-11T04:23:59.445Z,13.72
2023-04-11T04:24:59.420Z,13.78
2023-04-11T04:25:59.420Z,13.77
2023-04-11T04:26:59.446Z,13.69
2023-04-11T04:27:59.423Z,13.65
2023-04-11T04:28:59.427Z,13.74
2023-04-11T04:30:03.332Z,13.71
2023-04-11T04:31:00.502Z,13.71
2023-04-11T04:31:59.417Z,13.82
2023-04-11T04:32:59.744Z,13.89
2023-04-11T04:33:59.332Z,13.89
2023-04-11T04:34:59.370Z,13.92
2023-04-11T04:35:59.508Z,14.01
2023-04-11T04:36:59.448Z,14.05
2023-04-11T04:37:59.393Z,13.85
2023-04-11T04:38:59.374Z,13.95
2023-04-11T04:39:59.337Z,14.02
2023-04-11T04:40:59.349Z,14.02
2023-04-11T04:41:59.388Z,13.92
2023-04-11T04:42:59.326Z,13.89
2023-04-11T04:43:59.568Z,13.79
2023-04-11T04:44:59.321Z,13.85
2023-04-11T04:45:59.367Z,13.96
2023-04-11T04:46:59.303Z,14.03
2023-04-11T04:47:59.384Z,14.15
2023-04-11T04:49:01.675Z,14.27
2023-04-11T04:49:59.252Z,14.39
2023-04-11T04:50:59.283Z,14.50
2023-04-11T04:51:59.284Z,14.54
2023-04-11T04:52:59.274Z,14.60
2023-04-11T04:53:59.301Z,14.68
2023-04-11T04:54:59.255Z,14.70
2023-04-11T04:55:59.256Z,14.78
2023-04-11T04:56:59.277Z,14.84
2023-04-11T04:57:59.255Z,14.88
2023-04-11T04:58:59.224Z,14.88
2023-04-11T04:59:59.262Z,14.92
2023-04-11T05:00:59.236Z,14.96
2023-04-11T05:01:59.304Z,15.03
2023-04-11T05:03:00.003Z,15.02
2023-04-11T05:04:00.017Z,15.02
2023-04-11T05:04:59.242Z,14.99
2023-04-11T05:05:59.190Z,15.02
2023-04-11T05:06:59.289Z,14.89
2023-04-11T05:07:59.257Z,14.75
2023-04-11T05:08:59.172Z,14.77
2023-04-11T05:09:59.774Z,14.78
2023-04-11T05:10:59.140Z,14.71
2023-04-11T05:11:59.133Z,14.50
2023-04-11T05:12:59.142Z,14.68
2023-04-11T05:13:59.570Z,14.77
2023-04-11T05:14:59.222Z,14.86
2023-04-11T05:15:59.114Z,14.95
2023-04-11T05:16:59.203Z,14.99
2023-04-11T05:17:59.172Z,15.03
2023-04-11T05:18:59.087Z,15.06
2023-04-11T05:19:59.087Z,15.05
2023-04-11T05:20:59.151Z,15.10
2023-04-11T05:21:59.107Z,15.06
2023-04-11T05:22:59.910Z,15.10
2023-04-11T05:23:59.064Z,15.13
2023-04-11T05:24:59.097Z,15.18
2023-04-11T05:25:59.089Z,15.15
2023-04-11T05:26:59.234Z,15.18
2023-04-11T05:27:59.520Z,15.18
2023-04-11T05:28:59.202Z,15.03
2023-04-11T05:29:58.995Z,14.96
2023-04-11T05:31:00.818Z,14.58
2023-04-11T05:31:59.026Z,14.43
2023-04-11T05:32:59.429Z,14.47
2023-04-11T05:33:59.145Z,14.11
2023-04-11T05:34:59.488Z,14.06
2023-04-11T05:35:59.094Z,13.95
2023-04-11T05:36:59.045Z,13.74
2023-04-11T05:37:59.309Z,13.36
2023-04-11T05:38:59.892Z,13.51
2023-04-11T05:39:59.081Z,13.54
2023-04-11T05:40:59.148Z,13.58
2023-04-11T05:41:59.026Z,13.65
2023-04-11T05:42:59.313Z,13.50
2023-04-11T05:43:59.051Z,13.68
2023-04-11T05:44:59.110Z,13.58
2023-04-11T05:47:19.666Z,13.69
2023-04-11T05:48:19.083Z,13.72
2023-04-11T05:49:18.899Z,13.84
2023-04-11T05:50:19.001Z,13.89
2023-04-11T05:51:18.898Z,14.01
2023-04-11T05:52:19.455Z,14.02
2023-04-11T05:53:19.173Z,14.12
2023-04-11T05:54:19.236Z,14.16
2023-04-11T05:55:19.407Z,14.20
2023-04-11T05:56:19.246Z,14.13
2023-04-11T05:57:19.215Z,14.24
2023-04-11T05:58:19.468Z,14.29
2023-04-11T05:59:24.709Z,14.34
2023-04-11T06:00:19.845Z,14.50
2023-04-11T06:01:20.080Z,14.64
2023-04-11T06:02:19.440Z,14.71
2023-04-11T06:03:20.513Z,14.72
2023-04-11T06:04:19.612Z,14.74
2023-04-11T06:05:19.354Z,14.72
2023-04-11T06:06:19.295Z,14.82
2023-04-11T06:07:20.321Z,14.88
2023-04-11T06:08:19.320Z,14.89
2023-04-11T06:09:19.346Z,14.72
2023-04-11T06:10:19.386Z,14.77
2023-04-11T06:11:19.817Z,14.77
2023-04-11T06:12:19.102Z,14.92
2023-04-11T06:13:19.265Z,15.00
2023-04-11T06:14:19.908Z,15.16
2023-04-11T06:15:19.488Z,15.25
2023-04-11T06:16:19.428Z,15.30
2023-04-11T06:17:19.450Z,15.33
2023-04-11T06:18:20.260Z,15.37
2023-04-11T06:19:19.338Z,15.47
2023-04-11T06:20:19.431Z,15.53
2023-04-11T06:21:19.240Z,15.61
2023-04-11T06:22:19.272Z,15.64
2023-04-11T06:23:19.288Z,15.68
2023-04-11T06:24:19.443Z,15.71
2023-04-11T06:25:19.354Z,15.74
2023-04-11T06:26:19.402Z,15.77
2023-04-11T06:27:19.256Z,15.81
2023-04-11T06:28:19.307Z,15.86
2023-04-11T06:29:19.377Z,15.92
2023-04-11T06:30:19.430Z,15.99
2023-04-11T06:31:19.467Z,16.05
2023-04-11T06:32:19.790Z,16.08
2023-04-11T06:33:19.416Z,16.13
2023-04-11T06:34:19.358Z,16.16
2023-04-11T06:35:19.374Z,16.16
2023-04-11T06:36:19.470Z,16.17
2023-04-11T06:37:19.378Z,16.20
2023-04-11T06:38:20.874Z,16.22
2023-04-11T06:39:19.274Z,16.22
2023-04-11T06:40:19.253Z,16.23
2023-04-11T06:42:39.169Z,16.27
2023-04-11T06:43:39.986Z,16.30
2023-04-11T06:44:40.064Z,16.30
2023-04-11T06:45:39.106Z,16.24
2023-04-11T06:46:39.146Z,16.26
2023-04-11T06:47:39.922Z,16.27
2023-04-11T06:48:39.253Z,16.29
2023-04-11T06:49:39.973Z,16.32
2023-04-11T06:50:39.206Z,16.27
2023-04-11T06:51:39.172Z,16.27
2023-04-11T06:52:39.089Z,16.24
2023-04-11T06:53:39.046Z,16.29
2023-04-11T06:54:39.183Z,16.23
2023-04-11T06:55:39.136Z,16.24
2023-04-11T06:56:39.226Z,16.26
2023-04-11T06:57:39.138Z,16.23
2023-04-11T06:58:39.705Z,16.04
2023-04-11T06:59:39.891Z,15.80
2023-04-11T07:00:39.063Z,15.71
2023-04-11T07:01:39.362Z,15.53
2023-04-11T07:02:39.401Z,15.64
2023-04-11T07:03:39.767Z,15.71
2023-04-11T07:04:39.175Z,15.58
2023-04-11T07:05:39.670Z,15.46
2023-04-11T07:06:39.094Z,15.60
2023-04-11T07:07:39.093Z,15.53
2023-04-11T07:08:39.145Z,15.54
2023-04-11T07:09:40.249Z,15.65
2023-04-11T07:10:39.226Z,15.58
2023-04-11T07:11:39.035Z,15.37
2023-04-11T07:12:39.209Z,15.34
2023-04-11T07:13:39.255Z,15.25
2023-04-11T07:14:39.237Z,15.21
2023-04-11T07:15:39.207Z,14.95
2023-04-11T07:16:39.287Z,14.88
2023-04-11T07:17:39.395Z,14.71
2023-04-11T07:18:39.238Z,14.85
2023-04-11T07:19:39.208Z,14.61
2023-04-11T07:20:39.283Z,14.45
2023-04-11T07:21:39.203Z,14.44
2023-04-11T07:22:39.269Z,14.48
2023-04-11T07:23:40.127Z,14.63
2023-04-11T07:24:39.136Z,14.75
2023-04-11T07:25:39.084Z,14.71
2023-04-11T07:26:39.118Z,14.64
2023-04-11T07:27:39.133Z,14.81
2023-04-11T07:28:39.075Z,14.72
2023-04-11T07:29:39.102Z,14.88
2023-04-11T07:30:39.052Z,14.99
2023-04-11T07:31:39.115Z,15.02
2023-04-11T07:32:39.185Z,14.89
2023-04-11T07:33:39.505Z,14.72
2023-04-11T07:34:39.184Z,14.67
2023-04-11T07:35:39.167Z,14.75
2023-04-11T07:36:39.163Z,14.86
2023-04-11T07:37:39.174Z,14.58
2023-04-11T07:38:39.486Z,14.85
2023-04-11T07:39:39.243Z,15.00
2023-04-11T07:40:39.255Z,14.96
2023-04-11T07:41:39.456Z,15.21
2023-04-11T07:42:39.335Z,15.25
2023-04-11T07:43:39.572Z,15.30
2023-04-11T07:44:39.462Z,15.33
2023-04-11T07:45:39.709Z,15.47
2023-04-11T07:46:39.541Z,15.10
2023-04-11T07:47:39.603Z,15.18
2023-04-11T07:48:40.070Z,15.15
2023-04-11T07:49:39.592Z,14.91
2023-04-11T07:50:39.712Z,14.79
2023-04-11T07:51:39.715Z,14.91
2023-04-11T07:52:39.618Z,15.09
2023-04-11T07:53:39.690Z,15.23
2023-04-11T07:54:39.634Z,15.37
2023-04-11T07:55:39.577Z,15.51
2023-04-11T07:56:39.616Z,15.64
2023-04-11T07:57:40.296Z,15.75
2023-04-11T07:58:39.652Z,15.84
2023-04-11T07:59:39.604Z,15.81
2023-04-11T08:00:42.203Z,15.92
2023-04-11T08:01:39.693Z,15.88
2023-04-11T08:02:39.725Z,15.99
2023-04-11T08:03:39.659Z,16.06
2023-04-11T08:04:39.821Z,16.12
2023-04-11T08:05:39.586Z,16.22
2023-04-11T08:06:39.464Z,16.29
2023-04-11T08:07:39.445Z,16.34
2023-04-11T08:08:40.549Z,16.41
2023-04-11T08:09:39.461Z,16.49
2023-04-11T08:10:39.525Z,16.47
2023-04-11T08:11:39.530Z,16.56
2023-04-11T08:12:39.517Z,16.58
2023-04-11T08:13:39.555Z,16.67
2023-04-11T08:14:39.502Z,16.66
2023-04-11T08:15:39.486Z,16.63
2023-04-11T08:16:39.540Z,16.77
2023-04-11T08:17:39.561Z,16.81
2023-04-11T08:18:39.450Z,16.85
2023-04-11T08:19:39.504Z,16.84
2023-04-11T08:20:39.568Z,16.96
2023-04-11T08:21:39.413Z,17.02
2023-04-11T08:22:39.456Z,17.08
2023-04-11T08:23:39.436Z,17.13
2023-04-11T08:24:39.514Z,17.12
2023-04-11T08:25:39.449Z,17.13
2023-04-11T08:26:39.541Z,17.22
2023-04-11T08:27:39.387Z,17.23
2023-04-11T08:28:41.114Z,17.27
2023-04-11T08:29:39.989Z,17.25
2023-04-11T08:30:40.528Z,17.06
2023-04-11T08:31:39.737Z,17.13
2023-04-11T08:32:40.624Z,17.18
2023-04-11T08:33:39.819Z,17.12
2023-04-11T08:34:39.712Z,17.06
2023-04-11T08:35:39.833Z,17.11
2023-04-11T08:36:39.718Z,17.16
2023-04-11T08:37:39.785Z,17.12
2023-04-11T08:38:39.698Z,16.85
2023-04-11T08:39:40.056Z,16.89
2023-04-11T08:40:39.884Z,16.95
2023-04-11T08:41:39.660Z,16.84
2023-04-11T08:42:39.680Z,16.84
2023-04-11T08:43:39.655Z,16.85
2023-04-11T08:44:39.633Z,16.94
2023-04-11T08:45:39.667Z,17.01
2023-04-11T08:46:39.764Z,16.99
2023-04-11T08:47:39.759Z,16.81
2023-04-11T08:48:39.810Z,16.33
2023-04-11T08:49:40.537Z,16.19
2023-04-11T08:50:40.599Z,16.40
2023-04-11T08:51:39.722Z,16.54
2023-04-11T08:52:39.803Z,16.63
2023-04-11T08:53:40.040Z,16.58
2023-04-11T08:54:39.986Z,16.71
2023-04-11T08:55:39.862Z,16.66
2023-04-11T08:56:39.749Z,16.79
2023-04-11T08:57:39.854Z,16.81
2023-04-11T08:58:41.359Z,16.68
2023-04-11T08:59:39.766Z,16.84
2023-04-11T09:00:39.712Z,16.79
2023-04-11T09:01:39.833Z,16.82
2023-04-11T09:02:39.921Z,16.96
2023-04-11T09:03:39.877Z,16.99
2023-04-11T09:04:39.905Z,17.02
2023-04-11T09:05:39.934Z,16.71
2023-04-11T09:06:39.938Z,16.66
2023-04-11T09:07:39.828Z,16.23
2023-04-11T09:08:39.899Z,16.33
2023-04-11T09:09:39.932Z,16.36
2023-04-11T09:10:39.932Z,16.41
2023-04-11T09:11:39.958Z,16.53
2023-04-11T09:12:40.036Z,16.63
2023-04-11T09:13:40.087Z,16.72
2023-04-11T09:14:40.206Z,16.79
2023-04-11T09:15:40.107Z,16.71
2023-04-11T09:16:40.100Z,16.78
2023-04-11T09:17:40.168Z,16.78
2023-04-11T09:18:40.174Z,16.50
2023-04-11T09:19:40.089Z,16.63
2023-04-11T09:20:40.117Z,16.72
2023-04-11T09:21:40.222Z,16.68
2023-04-11T09:22:42.612Z,16.77
2023-04-11T09:23:40.537Z,16.82
2023-04-11T09:24:40.262Z,16.84
2023-04-11T09:25:40.130Z,16.81
2023-04-11T09:26:40.142Z,16.84
2023-04-11T09:27:40.176Z,16.84
2023-04-11T09:28:40.565Z,16.78
2023-04-11T09:29:40.221Z,16.79
2023-04-11T09:30:40.212Z,16.87
2023-04-11T09:31:40.317Z,16.95
2023-04-11T09:32:40.201Z,16.96
2023-04-11T09:33:40.441Z,16.92
2023-04-11T09:34:42.400Z,16.95
2023-04-11T09:35:40.103Z,16.98
2023-04-11T09:36:41.107Z,16.89
2023-04-11T09:37:40.131Z,16.96
2023-04-11T09:38:40.053Z,16.99
2023-04-11T09:39:40.700Z,16.63
2023-04-11T09:40:40.255Z,16.29
2023-04-11T09:41:40.053Z,16.13
2023-04-11T09:42:40.062Z,15.89
2023-04-11T09:43:40.087Z,16.02
2023-04-11T09:44:40.619Z,15.80
2023-04-11T09:45:51.719Z,15.80
2023-04-11T09:46:41.043Z,15.85
2023-04-11T09:47:41.389Z,15.77
2023-04-11T09:48:46.383Z,15.96
2023-04-11T09:49:40.992Z,16.08
2023-04-11T09:50:40.024Z,16.22
2023-04-11T09:51:40.469Z,16.30
2023-04-11T09:52:40.017Z,16.43
2023-04-11T09:53:40.000Z,16.54
2023-04-11T09:54:40.150Z,16.67
2023-04-11T09:55:39.944Z,16.75
2023-04-11T09:56:39.961Z,16.87
2023-04-11T09:57:39.962Z,16.92
2023-04-11T09:58:39.964Z,17.06
2023-04-11T09:59:40.044Z,17.13
2023-04-11T10:00:39.967Z,17.22
2023-04-11T10:01:40.096Z,17.27
2023-04-11T10:02:40.341Z,17.32
2023-04-11T10:03:40.119Z,17.37
2023-04-11T10:04:40.136Z,17.44
2023-04-11T10:05:40.104Z,17.50
2023-04-11T10:06:40.256Z,17.56
2023-04-11T10:07:40.329Z,17.56
2023-04-11T10:08:40.270Z,17.54
2023-04-11T10:09:40.434Z,17.58
2023-04-11T10:10:40.386Z,17.56
2023-04-11T10:11:40.478Z,17.51
2023-04-11T10:12:40.447Z,17.47
2023-04-11T10:13:40.402Z,17.54
2023-04-11T10:14:40.452Z,17.57
2023-04-11T10:15:40.452Z,17.66
2023-04-11T10:16:40.431Z,17.51
2023-04-11T10:17:40.613Z,17.64
2023-04-11T10:18:40.550Z,17.63
2023-04-11T10:19:40.550Z,17.67
2023-04-11T10:20:40.443Z,17.54
2023-04-11T10:21:40.515Z,17.56
2023-04-11T10:22:41.361Z,17.66
2023-04-11T10:23:40.615Z,17.70
2023-04-11T10:24:40.576Z,17.71
2023-04-11T10:25:40.594Z,17.61
2023-04-11T10:26:40.554Z,17.57
2023-04-11T10:27:40.494Z,17.51
2023-04-11T10:28:40.505Z,17.23
2023-04-11T10:29:40.636Z,17.26
2023-04-11T10:30:40.508Z,17.25
2023-04-11T10:31:40.601Z,17.26
2023-04-11T10:32:40.550Z,17.21
2023-04-11T10:33:40.508Z,17.25
2023-04-11T10:34:41.027Z,17.26
2023-04-11T10:35:40.569Z,17.22
2023-04-11T10:36:40.560Z,17.09
2023-04-11T10:37:43.812Z,17.11
2023-04-11T10:38:41.922Z,16.99
2023-04-11T10:39:41.061Z,17.13
2023-04-11T10:40:40.680Z,17.16
2023-04-11T10:41:40.704Z,17.16
2023-04-11T10:42:40.749Z,17.29
2023-04-11T10:43:40.885Z,17.22
2023-04-11T10:44:40.855Z,17.19
2023-04-11T10:45:40.689Z,17.36
2023-04-11T10:46:42.768Z,17.43
2023-04-11T10:47:40.681Z,17.54
2023-04-11T10:48:40.656Z,17.29
2023-04-11T10:49:40.709Z,17.25
2023-04-11T10:50:40.724Z,17.18
2023-04-11T10:51:40.622Z,17.05
2023-04-11T10:52:40.637Z,16.66
2023-04-11T10:53:40.539Z,16.75
2023-04-11T10:54:40.681Z,16.63
2023-04-11T10:55:40.851Z,16.96
2023-04-11T10:56:40.501Z,17.06
2023-04-11T10:57:40.592Z,16.89
2023-04-11T10:58:40.673Z,17.09
2023-04-11T10:59:41.223Z,16.92
2023-04-11T11:00:40.806Z,16.96
2023-04-11T11:02:41.175Z,16.71
2023-04-11T11:03:40.848Z,16.70
2023-04-11T11:04:41.024Z,16.71
2023-04-11T11:05:40.637Z,16.54
2023-04-11T11:06:47.333Z,16.67
2023-04-11T11:07:42.514Z,16.94
2023-04-11T11:08:42.265Z,17.15
2023-04-11T11:09:42.311Z,17.25
2023-04-11T11:10:41.546Z,17.27
2023-04-11T11:11:40.592Z,16.98
2023-04-11T11:12:40.845Z,16.82
2023-04-11T11:13:42.744Z,17.11
2023-04-11T11:14:40.521Z,16.63
2023-04-11T11:15:40.749Z,16.70
2023-04-11T11:16:40.711Z,16.94
2023-04-11T11:17:40.614Z,16.89
2023-04-11T11:18:40.634Z,17.13
2023-04-11T11:19:40.616Z,17.29
2023-04-11T11:20:40.522Z,17.40
2023-04-11T11:21:40.556Z,17.27
2023-04-11T11:22:40.536Z,16.92
2023-04-11T11:23:40.627Z,16.89
2023-04-11T11:24:40.649Z,16.75
2023-04-11T11:25:41.110Z,16.71
2023-04-11T11:26:41.394Z,16.75
2023-04-11T11:27:41.492Z,16.67
2023-04-11T11:28:42.842Z,17.01
2023-04-11T11:29:41.187Z,16.78
2023-04-11T11:30:41.333Z,17.02
2023-04-11T11:31:41.329Z,17.12
2023-04-11T11:32:41.276Z,17.37
2023-04-11T11:33:41.115Z,17.39
2023-04-11T11:34:41.657Z,17.51
2023-04-11T11:35:41.138Z,17.41
2023-04-11T11:36:41.075Z,17.36
2023-04-11T11:37:41.181Z,17.33
2023-04-11T11:38:40.863Z,16.95
2023-04-11T11:39:41.064Z,16.68
2023-04-11T11:40:40.895Z,16.68
2023-04-11T11:41:41.678Z,16.81
2023-04-11T11:42:40.983Z,16.81
2023-04-11T11:43:40.971Z,16.70
2023-04-11T11:44:41.004Z,16.51
2023-04-11T11:45:40.990Z,16.23
2023-04-11T11:46:40.961Z,16.26
2023-04-11T11:47:42.329Z,16.37
2023-04-11T11:48:41.035Z,16.37
2023-04-11T11:49:41.059Z,16.17
2023-04-11T11:50:41.045Z,16.12
2023-04-11T11:51:40.962Z,16.29
2023-04-11T11:52:41.053Z,16.30
2023-04-11T11:53:41.083Z,16.33
2023-04-11T11:54:40.967Z,16.06
2023-04-11T11:55:41.111Z,16.19
2023-04-11T11:56:41.019Z,16.01
2023-04-11T11:57:41.222Z,15.85
2023-04-11T11:58:42.119Z,15.71
2023-04-11T11:59:41.131Z,15.81
2023-04-11T12:00:41.100Z,15.96
2023-04-11T12:01:41.040Z,16.16
2023-04-11T12:02:41.192Z,16.39
2023-04-11T12:03:41.182Z,16.39
2023-04-11T12:04:41.290Z,16.15
2023-04-11T12:05:41.026Z,16.39
2023-04-11T12:06:40.970Z,16.13
2023-04-11T12:07:41.057Z,16.36
2023-04-11T12:08:40.989Z,16.57
2023-04-11T12:09:40.968Z,16.36
2023-04-11T12:10:41.098Z,16.33
2023-04-11T12:11:41.089Z,16.53
2023-04-11T12:12:41.223Z,16.54
2023-04-11T12:13:41.036Z,16.54
2023-04-11T12:14:41.052Z,16.57
2023-04-11T12:15:41.287Z,16.82
2023-04-11T12:16:41.008Z,16.70
2023-04-11T12:17:41.246Z,16.61
2023-04-11T12:18:41.043Z,16.67
2023-04-11T12:19:41.042Z,16.82
2023-04-11T12:20:41.068Z,16.87
2023-04-11T12:21:40.971Z,17.04
2023-04-11T12:22:41.018Z,17.27
2023-04-11T12:23:40.976Z,17.51
2023-04-11T12:24:41.002Z,17.44
2023-04-11T12:25:40.990Z,17.71
2023-04-11T12:26:57.540Z,18.01
2023-04-11T12:27:40.987Z,17.81
2023-04-11T12:28:40.974Z,17.99
2023-04-11T12:29:40.929Z,18.02
2023-04-11T12:30:40.970Z,17.91
2023-04-11T12:31:41.610Z,17.99
2023-04-11T12:32:40.939Z,17.89
2023-04-11T12:33:41.021Z,18.08
2023-04-11T12:34:40.891Z,17.88
2023-04-11T12:35:40.963Z,17.53
2023-04-11T12:36:40.879Z,17.57
2023-04-11T12:37:40.971Z,17.57
2023-04-11T12:38:41.063Z,17.41
2023-04-11T12:39:40.894Z,17.40
2023-04-11T12:40:40.902Z,17.41
2023-04-11T12:41:40.900Z,17.37
2023-04-11T12:42:48.965Z,16.64
2023-04-11T12:43:41.878Z,16.53
2023-04-11T12:44:40.825Z,16.70
2023-04-11T12:45:40.935Z,16.77
2023-04-11T12:46:40.815Z,16.71
2023-04-11T12:47:40.903Z,16.78
2023-04-11T12:48:40.889Z,16.84
2023-04-11T12:49:40.845Z,16.82
2023-04-11T12:50:40.853Z,16.66
2023-04-11T12:51:40.825Z,16.78
2023-04-11T12:52:40.809Z,16.77
2023-04-11T12:53:40.878Z,16.29
2023-04-11T12:54:40.871Z,16.44
2023-04-11T12:55:40.847Z,16.36
2023-04-11T12:56:40.819Z,16.40